createdAt,value
2023-02-21T00:02:00.312Z,56.77
2023-02-21T00:04:45.471Z,57.18
2023-02-21T00:07:30.593Z,55.96
2023-02-21T00:10:19.089Z,57.93
2023-02-21T00:13:04.609Z,57.46
2023-02-21T00:15:49.814Z,56.86
2023-02-21T00:18:35.044Z,56.44
2023-02-21T00:21:20.331Z,56.33
2023-02-21T00:24:05.690Z,56.06
2023-02-21T00:26:51.071Z,57.18
2023-02-21T00:29:36.418Z,57.32
2023-02-21T00:32:21.966Z,56.75
2023-02-21T00:35:07.376Z,55.85
2023-02-21T00:37:52.537Z,57.87
2023-02-21T00:40:37.410Z,56.79
2023-02-21T00:43:22.915Z,55.68
2023-02-21T00:46:08.467Z,57.27
2023-02-21T00:48:53.865Z,55.43
2023-02-21T00:51:39.077Z,57.62
2023-02-21T00:54:24.128Z,55.95
2023-02-21T00:57:09.472Z,57.51
2023-02-21T00:59:54.892Z,56.43
2023-02-21T01:02:39.903Z,56.91
2023-02-21T01:05:25.505Z,55.05
2023-02-21T01:08:10.842Z,55.31
2023-02-21T01:10:59.376Z,56.09
2023-02-21T01:13:44.428Z,55.16
2023-02-21T01:16:29.436Z,56.31
2023-02-21T01:19:15.324Z,55.82
2023-02-21T01:22:00.341Z,55.20
2023-02-21T01:24:45.773Z,55.71
2023-02-21T01:27:30.933Z,56.40
2023-02-21T01:30:16.252Z,57.16
2023-02-21T01:33:04.756Z,57.64
2023-02-21T01:35:50.107Z,57.66
2023-02-21T01:38:35.220Z,58.06
2023-02-21T01:41:20.692Z,59.05
2023-02-21T01:44:24.258Z,56.81
2023-02-21T01:47:09.717Z,58.72
2023-02-21T01:49:58.204Z,59.02
2023-02-21T01:52:44.644Z,59.01
2023-02-21T01:55:30.758Z,58.12
2023-02-21T01:58:16.188Z,58.77
2023-02-21T02:01:02.957Z,59.10
2023-02-21T02:03:49.760Z,57.81
2023-02-21T02:06:36.375Z,59.08
2023-02-21T02:09:41.340Z,58.92
2023-02-21T02:12:30.655Z,59.24
2023-02-21T02:15:31.609Z,59.90
2023-02-21T02:18:34.887Z,60.19
2023-02-21T02:21:29.064Z,59.97
2023-02-21T02:24:33.924Z,59.88
2023-02-21T02:27:34.944Z,59.93
2023-02-21T02:30:04.972Z,59.88
2023-02-21T02:33:25.972Z,61.30
2023-02-21T02:36:10.052Z,59.36
2023-02-21T02:38:46.547Z,60.72
2023-02-21T02:41:36.959Z,61.15
2023-02-21T02:44:28.800Z,60.31
2023-02-21T02:47:03.205Z,62.88
2023-02-21T02:49:33.589Z,63.29
2023-02-21T02:52:08.821Z,63.22
2023-02-21T02:54:36.010Z,62.34
2023-02-21T02:57:10.506Z,62.12
2023-02-21T02:59:42.108Z,62.07
2023-02-21T03:02:17.989Z,62.18
2023-02-21T03:05:09.136Z,62.00
2023-02-21T03:07:50.749Z,60.99
2023-02-21T03:10:29.793Z,60.91
2023-02-21T03:13:16.036Z,63.89
2023-02-21T03:15:52.403Z,65.25
2023-02-21T03:18:50.503Z,66.45
2023-02-21T03:21:22.300Z,68.61
2023-02-21T03:23:53.139Z,69.97
2023-02-21T03:26:20.389Z,69.72
2023-02-21T03:28:50.894Z,69.95
2023-02-21T03:31:24.631Z,70.24
2023-02-21T03:33:51.661Z,70.85
2023-02-21T03:36:18.394Z,70.80
2023-02-21T03:38:45.121Z,71.14
2023-02-21T03:41:13.141Z,71.77
2023-02-21T03:43:43.308Z,71.43
2023-02-21T03:46:11.209Z,70.00
2023-02-21T03:48:38.111Z,70.28
2023-02-21T03:51:15.085Z,69.58
2023-02-21T03:53:43.340Z,69.92
2023-02-21T03:56:11.716Z,70.16
2023-02-21T03:58:58.804Z,68.67
2023-02-21T04:01:25.848Z,67.84
2023-02-21T04:03:54.068Z,65.91
2023-02-21T04:06:21.581Z,66.57
2023-02-21T04:08:51.930Z,65.48
2023-02-21T04:11:23.053Z,65.81
2023-02-21T04:13:51.668Z,64.79
2023-02-21T04:16:18.355Z,64.48
2023-02-21T04:18:45.332Z,64.28
2023-02-21T04:21:17.249Z,64.90
2023-02-21T04:23:44.778Z,65.29
2023-02-21T04:26:11.772Z,67.26
2023-02-21T04:28:44.229Z,68.74
2023-02-21T04:31:11.459Z,69.16
2023-02-21T04:33:38.437Z,66.62
2023-02-21T04:36:05.476Z,66.20
2023-02-21T04:38:35.568Z,65.14
2023-02-21T04:41:02.300Z,64.24
2023-02-21T04:43:29.598Z,64.06
2023-02-21T04:45:56.448Z,64.00
2023-02-21T04:48:25.053Z,63.10
2023-02-21T04:50:51.824Z,60.35
2023-02-21T04:53:18.444Z,61.26
2023-02-21T04:55:45.061Z,57.95
2023-02-21T04:58:11.729Z,60.32
2023-02-21T05:00:38.544Z,60.42
2023-02-21T05:03:05.076Z,60.86
2023-02-21T05:05:31.721Z,61.85
2023-02-21T05:07:58.334Z,60.60
2023-02-21T05:10:31.020Z,61.51
2023-02-21T05:13:03.518Z,57.63
2023-02-21T05:15:30.067Z,58.47
2023-02-21T05:17:59.150Z,59.75
2023-02-21T05:20:25.922Z,51.44
2023-02-21T05:22:54.506Z,50.82
2023-02-21T05:25:23.445Z,53.26
2023-02-21T05:27:52.263Z,54.01
2023-02-21T05:30:22.342Z,53.04
2023-02-21T05:32:49.219Z,50.34
2023-02-21T05:35:17.181Z,48.44
2023-02-21T05:37:43.990Z,52.67
2023-02-21T05:40:21.036Z,45.08
2023-02-21T05:42:47.718Z,48.24
2023-02-21T05:45:14.278Z,48.49
2023-02-21T05:47:41.052Z,47.03
2023-02-21T05:50:07.935Z,42.86
2023-02-21T05:52:34.558Z,48.91
2023-02-21T05:55:01.224Z,41.96
2023-02-21T05:57:28.118Z,46.67
2023-02-21T05:59:54.718Z,42.90
2023-02-21T06:02:21.514Z,46.51
2023-02-21T06:04:49.045Z,41.88
2023-02-21T06:07:15.791Z,44.91
2023-02-21T06:09:42.358Z,41.83
2023-02-21T06:12:09.081Z,42.01
2023-02-21T06:14:35.665Z,43.43
2023-02-21T06:17:02.816Z,43.58
2023-02-21T06:19:29.448Z,43.65
2023-02-21T06:21:56.140Z,46.28
2023-02-21T06:24:22.844Z,45.93
2023-02-21T06:26:49.606Z,42.88
2023-02-21T06:29:16.233Z,43.73
2023-02-21T06:31:42.894Z,46.67
2023-02-21T06:34:09.702Z,45.36
2023-02-21T06:36:36.455Z,45.48
2023-02-21T06:39:03.753Z,43.81
2023-02-21T06:41:31.699Z,43.92
2023-02-21T06:43:59.634Z,47.16
2023-02-21T06:46:29.124Z,43.51
2023-02-21T06:48:55.926Z,45.57
2023-02-21T06:51:29.211Z,44.39
2023-02-21T06:53:57.792Z,46.95
2023-02-21T06:56:24.482Z,46.57
2023-02-21T06:58:51.117Z,46.80
2023-02-21T07:01:17.949Z,44.71
2023-02-21T07:03:46.187Z,47.12
2023-02-21T07:06:13.387Z,48.58
2023-02-21T07:08:40.023Z,47.06
2023-02-21T07:11:07.295Z,45.15
2023-02-21T07:13:34.122Z,48.82
2023-02-21T07:16:01.789Z,49.43
2023-02-21T07:18:28.549Z,49.67
2023-02-21T07:20:55.249Z,50.14
2023-02-21T07:23:21.977Z,50.22
2023-02-21T07:25:48.642Z,49.50
2023-02-21T07:28:15.305Z,49.98
2023-02-21T07:30:41.980Z,50.66
2023-02-21T07:33:08.635Z,50.04
2023-02-21T07:35:35.309Z,50.39
2023-02-21T07:38:02.145Z,50.50
2023-02-21T07:40:28.695Z,46.66
2023-02-21T07:42:55.340Z,46.72
2023-02-21T07:45:22.298Z,50.20
2023-02-21T07:47:51.061Z,50.12
2023-02-21T07:50:17.706Z,47.54
2023-02-21T07:52:45.856Z,46.19
2023-02-21T07:55:13.496Z,48.72
2023-02-21T07:57:40.249Z,46.36
2023-02-21T08:00:07.475Z,43.26
2023-02-21T08:02:39.839Z,45.41
2023-02-21T08:05:08.238Z,44.65
2023-02-21T08:07:34.843Z,44.63
2023-02-21T08:10:01.492Z,47.51
2023-02-21T08:12:28.132Z,48.01
2023-02-21T08:14:54.740Z,46.04
2023-02-21T08:17:21.332Z,46.48
2023-02-21T08:19:47.956Z,45.35
2023-02-21T08:22:14.611Z,47.12
2023-02-21T08:24:41.438Z,47.98
2023-02-21T08:27:08.100Z,47.68
2023-02-21T08:29:34.787Z,48.08
2023-02-21T08:32:01.454Z,47.64
2023-02-21T08:34:29.408Z,46.99
2023-02-21T08:36:56.347Z,47.78
2023-02-21T08:39:23.382Z,47.05
2023-02-21T08:41:51.181Z,47.98
2023-02-21T08:44:18.474Z,49.91
2023-02-21T08:46:45.121Z,48.38
2023-02-21T08:49:12.034Z,47.66
2023-02-21T08:51:39.079Z,47.86
2023-02-21T08:54:07.427Z,46.61
2023-02-21T08:56:34.474Z,48.36
2023-02-21T08:59:01.176Z,48.35
2023-02-21T09:01:33.463Z,47.68
2023-02-21T09:04:00.417Z,47.06
2023-02-21T09:06:26.964Z,47.49
2023-02-21T09:08:53.609Z,48.52
2023-02-21T09:11:20.225Z,49.25
2023-02-21T09:13:46.896Z,47.19
2023-02-21T09:16:13.631Z,48.95
2023-02-21T09:18:40.353Z,48.14
2023-02-21T09:21:07.347Z,49.23
2023-02-21T09:23:34.047Z,46.45
2023-02-21T09:26:00.632Z,47.69
2023-02-21T09:28:29.341Z,49.00
2023-02-21T09:30:55.971Z,49.23
2023-02-21T09:33:24.812Z,47.38
2023-02-21T09:35:51.743Z,48.03
2023-02-21T09:38:18.395Z,47.75
2023-02-21T09:40:59.953Z,47.75
2023-02-21T09:43:41.069Z,48.89
2023-02-21T09:46:14.568Z,49.07
2023-02-21T09:48:43.432Z,48.60
2023-02-21T09:51:11.943Z,46.95
2023-02-21T09:53:42.886Z,45.93
2023-02-21T09:56:25.190Z,47.76
2023-02-21T09:58:52.020Z,48.39
2023-02-21T10:01:33.261Z,47.55
2023-02-21T10:04:18.679Z,46.22
2023-02-21T10:07:00.620Z,48.29
2023-02-21T10:09:52.098Z,46.59
2023-02-21T10:12:41.338Z,49.71
2023-02-21T10:15:26.444Z,49.15
2023-02-21T10:18:02.462Z,50.19
2023-02-21T10:20:49.224Z,45.90
2023-02-21T10:23:27.281Z,49.12
2023-02-21T10:26:02.825Z,45.66
2023-02-21T10:28:35.127Z,46.47
2023-02-21T10:31:09.343Z,46.78
2023-02-21T10:33:40.755Z,47.52
2023-02-21T10:36:18.325Z,45.61
2023-02-21T10:38:55.146Z,45.42
2023-02-21T10:41:23.635Z,46.00
2023-02-21T10:43:57.977Z,46.54
2023-02-21T10:46:40.128Z,46.20
2023-02-21T10:49:21.940Z,45.05
2023-02-21T10:52:09.212Z,47.92
2023-02-21T10:54:36.184Z,46.13
2023-02-21T10:57:05.271Z,46.03
2023-02-21T10:59:41.220Z,46.22
2023-02-21T11:02:32.215Z,46.91
2023-02-21T11:05:12.234Z,44.18
2023-02-21T11:07:39.256Z,44.07
2023-02-21T11:10:28.024Z,46.74
2023-02-21T11:13:16.446Z,46.86
2023-02-21T11:15:45.422Z,44.65
2023-02-21T11:18:19.308Z,46.69
2023-02-21T11:20:47.301Z,43.79
2023-02-21T11:23:19.981Z,44.44
2023-02-21T11:25:48.139Z,43.28
2023-02-21T11:28:14.666Z,44.78
2023-02-21T11:31:06.369Z,44.47
2023-02-21T11:33:37.476Z,43.52
2023-02-21T11:36:16.856Z,42.50
2023-02-21T11:38:58.857Z,46.27
2023-02-21T11:41:35.532Z,43.56
2023-02-21T11:44:02.315Z,47.01
2023-02-21T11:46:37.831Z,46.38
2023-02-21T11:49:32.726Z,43.77
2023-02-21T11:52:22.484Z,43.47
2023-02-21T11:54:49.326Z,47.42
2023-02-21T11:57:27.242Z,46.13
2023-02-21T12:00:15.314Z,47.54
2023-02-21T12:03:07.144Z,46.50
2023-02-21T12:05:54.560Z,45.30
2023-02-21T12:08:39.713Z,43.18
2023-02-21T12:11:33.604Z,45.05
2023-02-21T12:14:27.049Z,45.25
2023-02-21T12:17:13.327Z,46.30
2023-02-21T12:20:04.103Z,43.83
2023-02-21T12:22:58.469Z,42.75
2023-02-21T12:26:03.534Z,47.03
2023-02-21T12:29:00.668Z,45.62
2023-02-21T12:31:46.252Z,43.56
2023-02-21T12:34:24.741Z,46.62
2023-02-21T12:36:54.082Z,46.28
2023-02-21T12:39:32.369Z,48.44
2023-02-21T12:42:33.678Z,46.96
2023-02-21T12:45:07.261Z,46.60
2023-02-21T12:47:39.742Z,45.88
2023-02-21T12:50:15.952Z,48.09
2023-02-21T12:53:08.570Z,45.45
2023-02-21T12:55:49.200Z,47.58
2023-02-21T12:58:34.434Z,47.43
2023-02-21T13:01:10.715Z,46.19
2023-02-21T13:03:54.069Z,46.97
2023-02-21T13:06:42.679Z,45.04
2023-02-21T13:09:34.571Z,47.22
2023-02-21T13:12:19.795Z,47.59
2023-02-21T13:14:57.293Z,46.76
2023-02-21T13:17:24.113Z,48.16
2023-02-21T13:20:01.217Z,48.49
2023-02-21T13:22:29.941Z,49.46
2023-02-21T13:25:40.899Z,48.02
2023-02-21T13:28:18.610Z,48.20
2023-02-21T13:30:50.379Z,47.20
2023-02-21T13:33:35.323Z,47.79
2023-02-21T13:36:02.460Z,46.64
2023-02-21T13:38:31.570Z,47.95
2023-02-21T13:41:16.950Z,46.65
2023-02-21T13:43:51.054Z,49.29
2023-02-21T13:46:46.961Z,49.04
2023-02-21T13:49:50.763Z,48.95
2023-02-21T13:52:23.071Z,49.01
2023-02-21T13:55:08.692Z,47.02
2023-02-21T13:57:38.355Z,48.25
2023-02-21T14:00:23.812Z,48.71
2023-02-21T14:03:18.147Z,49.49
2023-02-21T14:05:45.016Z,49.07
2023-02-21T14:08:36.196Z,49.40
2023-02-21T14:11:05.564Z,45.03
2023-02-21T14:13:41.528Z,45.75
2023-02-21T14:16:08.248Z,49.05
2023-02-21T14:18:59.789Z,46.95
2023-02-21T14:21:33.566Z,48.08
2023-02-21T14:24:04.338Z,49.55
2023-02-21T14:26:36.677Z,49.04
2023-02-21T14:29:09.180Z,47.58
2023-02-21T14:31:48.434Z,49.09
2023-02-21T14:34:21.395Z,49.20
2023-02-21T14:36:50.293Z,49.06
2023-02-21T14:39:17.433Z,47.77
2023-02-21T14:42:03.313Z,47.67
2023-02-21T14:45:01.745Z,49.21
2023-02-21T14:47:54.633Z,48.53
2023-02-21T14:50:54.561Z,49.58
2023-02-21T14:53:58.697Z,50.17
2023-02-21T14:56:34.008Z,50.35
2023-02-21T14:59:21.827Z,48.87
2023-02-21T15:02:25.317Z,47.91
2023-02-21T15:05:21.269Z,48.23
2023-02-21T15:07:47.934Z,50.12
2023-02-21T15:10:23.671Z,50.56
2023-02-21T15:13:21.528Z,49.09
2023-02-21T15:15:54.591Z,49.77
2023-02-21T15:18:23.955Z,50.04
2023-02-21T15:21:16.771Z,48.92
2023-02-21T15:23:46.097Z,50.98
2023-02-21T15:26:22.061Z,51.26
2023-02-21T15:29:15.346Z,51.93
2023-02-21T15:31:54.556Z,50.52
2023-02-21T15:34:26.073Z,52.32
2023-02-21T15:36:58.354Z,51.77
2023-02-21T15:39:34.644Z,50.92
2023-02-21T15:42:05.746Z,52.17
2023-02-21T15:44:48.429Z,50.98
2023-02-21T15:47:23.798Z,52.08
2023-02-21T15:50:28.989Z,51.86
2023-02-21T15:52:55.760Z,52.72
2023-02-21T15:55:25.786Z,53.56
2023-02-21T15:58:00.549Z,53.34
2023-02-21T16:00:33.711Z,52.70
2023-02-21T16:03:36.702Z,53.09
2023-02-21T16:06:11.582Z,52.82
2023-02-21T16:08:50.110Z,53.44
2023-02-21T16:11:17.615Z,54.17
2023-02-21T16:13:44.622Z,54.45
2023-02-21T16:16:11.313Z,54.84
2023-02-21T16:18:38.144Z,54.65
2023-02-21T16:21:07.431Z,53.70
2023-02-21T16:23:35.536Z,54.80
2023-02-21T16:26:04.058Z,54.31
2023-02-21T16:28:31.689Z,54.96
2023-02-21T16:31:01.466Z,54.61
2023-02-21T16:33:29.768Z,55.22
2023-02-21T16:35:56.775Z,52.40
2023-02-21T16:38:25.925Z,55.22
2023-02-21T16:40:52.761Z,55.83
2023-02-21T16:43:27.623Z,56.05
2023-02-21T16:45:57.056Z,55.14
2023-02-21T16:48:33.002Z,55.85
2023-02-21T16:51:07.108Z,55.18
2023-02-21T16:53:33.945Z,55.48
2023-02-21T16:56:01.826Z,55.48
2023-02-21T16:58:34.944Z,57.01
2023-02-21T17:01:14.846Z,56.83
2023-02-21T17:03:42.423Z,56.35
2023-02-21T17:06:16.773Z,57.13
2023-02-21T17:08:43.444Z,56.83
2023-02-21T17:11:10.079Z,57.27
2023-02-21T17:13:36.769Z,57.13
2023-02-21T17:16:03.793Z,56.23
2023-02-21T17:18:31.524Z,56.85
2023-02-21T17:20:59.392Z,57.44
2023-02-21T17:23:26.533Z,57.20
2023-02-21T17:25:53.244Z,57.18
2023-02-21T17:28:19.817Z,57.26
2023-02-21T17:30:47.650Z,56.71
2023-02-21T17:33:15.281Z,56.45
2023-02-21T17:35:41.936Z,56.37
2023-02-21T17:38:08.687Z,56.63
2023-02-21T17:40:35.568Z,57.01
2023-02-21T17:43:03.391Z,56.92
2023-02-21T17:45:30.010Z,58.60
2023-02-21T17:47:56.682Z,56.56
2023-02-21T17:50:23.570Z,57.57
2023-02-21T17:52:50.332Z,58.44
2023-02-21T17:55:25.524Z,59.34
2023-02-21T17:57:53.125Z,57.04
2023-02-21T18:00:25.234Z,57.75
2023-02-21T18:02:53.662Z,58.92
2023-02-21T18:05:20.673Z,58.81
2023-02-21T18:07:53.930Z,58.27
2023-02-21T18:10:23.402Z,58.15
2023-02-21T18:12:51.470Z,57.64
2023-02-21T18:15:23.596Z,57.16
2023-02-21T18:17:50.923Z,58.21
2023-02-21T18:20:18.022Z,58.17
2023-02-21T18:22:44.737Z,58.48
2023-02-21T18:25:15.191Z,57.88
2023-02-21T18:27:41.979Z,58.27
2023-02-21T18:30:09.421Z,59.71
2023-02-21T18:32:36.263Z,59.11
2023-02-21T18:35:02.980Z,59.41
2023-02-21T18:37:29.626Z,58.77
2023-02-21T18:39:56.657Z,57.68
2023-02-21T18:42:24.145Z,59.21
2023-02-21T18:44:54.191Z,59.13
2023-02-21T18:47:20.844Z,58.82
2023-02-21T18:49:48.076Z,59.55
2023-02-21T18:52:16.526Z,59.53
2023-02-21T18:54:49.709Z,59.10
2023-02-21T18:57:18.433Z,59.46
2023-02-21T18:59:45.303Z,59.44
2023-02-21T19:02:17.270Z,56.71
2023-02-21T19:04:44.289Z,58.72
2023-02-21T19:07:14.049Z,59.87
2023-02-21T19:09:40.970Z,59.73
2023-02-21T19:12:10.664Z,59.54
2023-02-21T19:14:37.888Z,60.00
2023-02-21T19:17:07.788Z,59.31
2023-02-21T19:19:35.708Z,59.75
2023-02-21T19:22:02.300Z,59.15
2023-02-21T19:24:29.020Z,58.96
2023-02-21T19:26:55.716Z,58.30
2023-02-21T19:29:22.487Z,58.50
2023-02-21T19:31:49.322Z,58.80
2023-02-21T19:34:16.355Z,58.30
2023-02-21T19:36:43.047Z,58.62
2023-02-21T19:39:11.655Z,59.13
2023-02-21T19:41:38.854Z,58.49
2023-02-21T19:44:06.009Z,58.33
2023-02-21T19:46:32.568Z,59.17
2023-02-21T19:49:02.429Z,58.76
2023-02-21T19:51:31.470Z,58.21
2023-02-21T19:53:59.031Z,58.12
2023-02-21T19:56:29.075Z,58.15
2023-02-21T19:58:55.850Z,59.06
2023-02-21T20:01:23.066Z,59.03
2023-02-21T20:03:50.023Z,58.16
2023-02-21T20:06:17.563Z,59.25
2023-02-21T20:08:48.421Z,59.11
2023-02-21T20:11:18.978Z,59.38
2023-02-21T20:13:45.592Z,59.66
2023-02-21T20:16:15.368Z,59.58
2023-02-21T20:18:43.102Z,59.62
2023-02-21T20:21:10.015Z,59.06
2023-02-21T20:23:36.701Z,59.54
2023-02-21T20:26:03.721Z,59.72
2023-02-21T20:28:30.395Z,58.72
2023-02-21T20:30:57.112Z,58.26
2023-02-21T20:33:24.713Z,58.78
2023-02-21T20:35:52.593Z,59.26
2023-02-21T20:38:19.733Z,58.78
2023-02-21T20:40:46.830Z,58.02
2023-02-21T20:43:13.721Z,57.54
2023-02-21T20:45:40.371Z,58.69
2023-02-21T20:48:10.953Z,58.54
2023-02-21T20:50:38.230Z,57.42
2023-02-21T20:53:05.754Z,56.13
2023-02-21T20:55:32.700Z,57.62
2023-02-21T20:57:59.273Z,59.00
2023-02-21T21:00:30.276Z,58.81
2023-02-21T21:02:57.223Z,59.78
2023-02-21T21:05:23.787Z,59.17
2023-02-21T21:07:50.529Z,57.56
2023-02-21T21:10:18.916Z,58.69
2023-02-21T21:12:45.864Z,58.76
2023-02-21T21:15:14.305Z,58.25
2023-02-21T21:17:41.861Z,58.73
2023-02-21T21:20:10.512Z,57.87
2023-02-21T21:22:37.176Z,57.39
2023-02-21T21:25:04.686Z,55.96
2023-02-21T21:30:01.100Z,56.97
2023-02-21T21:32:28.483Z,58.93
2023-02-21T21:34:56.986Z,57.53
2023-02-21T21:37:29.060Z,57.17
2023-02-21T21:39:56.421Z,58.27
2023-02-21T21:42:26.295Z,59.78
2023-02-21T21:44:54.862Z,56.60
2023-02-21T21:47:26.789Z,57.82
2023-02-21T21:49:53.876Z,58.87
2023-02-21T21:52:21.828Z,59.17
2023-02-21T21:54:48.519Z,59.14
2023-02-21T21:57:17.384Z,59.36
2023-02-21T21:59:44.736Z,58.87
2023-02-21T22:02:11.580Z,59.29
2023-02-21T22:04:39.569Z,59.38
2023-02-21T22:07:07.958Z,59.68
2023-02-21T22:09:35.453Z,59.78
2023-02-21T22:12:03.883Z,59.26
2023-02-21T22:14:30.595Z,59.91
2023-02-21T22:16:57.496Z,60.25
2023-02-21T22:19:25.905Z,59.66
2023-02-21T22:21:56.942Z,60.32
2023-02-21T22:24:24.573Z,59.83
2023-02-21T22:26:55.054Z,59.51
2023-02-21T22:29:22.713Z,60.31
2023-02-21T22:31:52.175Z,59.72
2023-02-21T22:34:25.436Z,59.39
2023-02-21T22:36:57.598Z,58.96
2023-02-21T22:39:25.860Z,60.17
2023-02-21T22:41:52.648Z,59.25
2023-02-21T22:44:19.700Z,59.01
2023-02-21T22:46:50.511Z,60.06
2023-02-21T22:49:17.230Z,59.48
2023-02-21T22:51:44.389Z,60.12
2023-02-21T22:54:14.404Z,60.33
2023-02-21T22:56:50.833Z,60.48
2023-02-21T22:59:25.926Z,60.78
2023-02-21T23:01:53.273Z,60.04
2023-02-21T23:04:26.754Z,59.78
2023-02-21T23:06:58.963Z,59.83
2023-02-21T23:09:27.992Z,60.01
2023-02-21T23:11:58.493Z,60.50
2023-02-21T23:14:26.241Z,60.80
2023-02-21T23:16:57.339Z,60.86
2023-02-21T23:19:28.244Z,60.23
2023-02-21T23:21:57.654Z,60.29
2023-02-21T23:24:24.452Z,60.03
2023-02-21T23:26:51.843Z,60.42
2023-02-21T23:29:26.135Z,59.89
2023-02-21T23:31:57.625Z,59.37
2023-02-21T23:34:40.393Z,60.19
2023-02-21T23:37:09.126Z,60.64
2023-02-21T23:39:35.884Z,60.02
2023-02-21T23:42:02.505Z,59.96
2023-02-21T23:44:29.058Z,59.95
2023-02-21T23:46:55.737Z,60.72
2023-02-21T23:49:24.402Z,60.29
2023-02-21T23:51:53.583Z,60.87
2023-02-21T23:54:21.132Z,61.28
2023-02-21T23:56:49.080Z,60.97
2023-02-21T23:59:16.563Z,61.24
